Alfenas, Brazil
Current Conditions -  °F | °C
As of 6:00 PM on Thursday 29 Jan 2015 (Local Time) from SBGW Reporting Station
Thunderstorm Thunderstorm  
Wind Chill: 86°   Ceiling: 6700
Heat Index: 87°   Visibility: 6mi
Dew Point: 64°   Wind: 3mph
Humidity: 48%   Direction: 60°ENE
Pressure: 29.91"   Gusts: NA
Location:  21.41°S, 45.95°W
Report Text: SBGW 292000Z 06003KT 9999 TS SCT025 FEW030CB BKN067 30/18 Q1013
Loading
Personal Weather Stations






























Interactive Weather Map New forecast layout! Learn more

10-Day Weather Forecast

Advertisements
Track Severe Weather on mobile